createdAt,value
2023-03-03T00:00:53.402Z,1.90
2023-03-03T00:03:23.441Z,1.77
2023-03-03T00:05:53.366Z,1.90
2023-03-03T00:08:21.913Z,2.10
2023-03-03T00:10:49.599Z,1.93
2023-03-03T00:13:19.316Z,1.80
2023-03-03T00:15:47.743Z,1.53
2023-03-03T00:18:23.662Z,2.03
2023-03-03T00:20:55.150Z,2.42
2023-03-03T00:23:30.846Z,1.45
2023-03-03T00:25:59.450Z,2.35
2023-03-03T00:28:30.732Z,3.29
2023-03-03T00:31:00.023Z,3.05
2023-03-03T00:33:32.611Z,2.74
2023-03-03T00:36:31.624Z,2.60
2023-03-03T00:39:12.881Z,1.79
2023-03-03T00:41:40.963Z,1.74
2023-03-03T00:44:34.287Z,2.05
2023-03-03T00:47:13.507Z,2.27
2023-03-03T00:49:41.566Z,2.13
2023-03-03T00:52:17.185Z,2.22
2023-03-03T00:54:44.797Z,1.61
2023-03-03T00:57:13.610Z,1.66
2023-03-03T00:59:41.350Z,1.21
2023-03-03T01:02:08.854Z,1.85
2023-03-03T01:04:36.367Z,2.86
2023-03-03T01:07:04.246Z,3.20
2023-03-03T01:09:33.108Z,3.17
2023-03-03T01:12:00.795Z,3.08
2023-03-03T01:14:28.354Z,2.13
2023-03-03T01:16:55.911Z,2.36
2023-03-03T01:19:23.363Z,1.99
2023-03-03T01:21:52.258Z,1.50
2023-03-03T01:24:19.795Z,1.18
2023-03-03T01:26:48.629Z,1.74
2023-03-03T01:29:16.100Z,2.01
2023-03-03T01:31:43.603Z,2.11
2023-03-03T01:34:11.111Z,3.06
2023-03-03T01:36:38.664Z,2.43
2023-03-03T01:39:06.163Z,2.57
2023-03-03T01:41:34.253Z,2.66
2023-03-03T01:44:03.054Z,2.78
2023-03-03T01:46:46.178Z,2.60
2023-03-03T01:49:16.908Z,2.99
2023-03-03T01:51:50.062Z,2.54
2023-03-03T01:54:23.080Z,2.97
2023-03-03T01:56:52.911Z,2.21
2023-03-03T01:59:26.800Z,2.90
2023-03-03T02:01:54.625Z,2.41
2023-03-03T02:04:22.435Z,2.72
2023-03-03T02:06:55.662Z,2.30
2023-03-03T02:09:29.074Z,2.92
2023-03-03T02:12:00.951Z,2.28
2023-03-03T02:14:29.898Z,2.09
2023-03-03T02:16:58.081Z,2.39
2023-03-03T02:19:33.940Z,2.73
2023-03-03T02:22:03.143Z,2.75
2023-03-03T02:24:35.878Z,2.49
2023-03-03T02:27:04.881Z,2.41
2023-03-03T02:29:32.310Z,2.36
2023-03-03T02:31:59.989Z,2.28
2023-03-03T02:34:27.504Z,2.53
2023-03-03T02:36:55.074Z,2.33
2023-03-03T02:39:24.729Z,2.78
2023-03-03T02:41:56.669Z,2.24
2023-03-03T02:44:27.202Z,2.73
2023-03-03T02:46:56.104Z,2.76
2023-03-03T02:49:24.891Z,2.73
2023-03-03T02:51:52.455Z,2.96
2023-03-03T02:54:21.934Z,2.70
2023-03-03T02:56:49.819Z,2.29
2023-03-03T02:59:18.206Z,2.27
2023-03-03T03:01:47.989Z,2.74
2023-03-03T03:04:17.373Z,2.81
2023-03-03T03:06:45.937Z,2.88
2023-03-03T03:09:14.433Z,2.53
2023-03-03T03:11:42.772Z,2.03
2023-03-03T03:14:12.370Z,2.27
2023-03-03T03:16:40.514Z,2.39
2023-03-03T03:19:09.726Z,2.37
2023-03-03T03:21:37.286Z,1.91
2023-03-03T03:24:05.057Z,1.70
2023-03-03T03:26:32.487Z,2.17
2023-03-03T03:29:00.013Z,2.05
2023-03-03T03:31:27.485Z,1.99
2023-03-03T03:33:54.961Z,1.83
2023-03-03T03:36:23.839Z,2.31
2023-03-03T03:38:52.404Z,1.69
2023-03-03T03:41:19.876Z,2.57
2023-03-03T03:43:48.059Z,2.88
2023-03-03T03:46:15.628Z,3.06
2023-03-03T03:48:43.092Z,2.88
2023-03-03T03:51:11.954Z,2.90
2023-03-03T03:53:40.766Z,2.71
2023-03-03T03:56:08.989Z,2.74
2023-03-03T03:58:36.438Z,2.17
2023-03-03T04:01:05.279Z,2.28
2023-03-03T04:03:32.830Z,2.73
2023-03-03T04:06:00.392Z,1.99
2023-03-03T04:08:27.937Z,2.09
2023-03-03T04:10:56.788Z,2.29
2023-03-03T04:13:24.366Z,2.77
2023-03-03T04:15:51.882Z,2.81
2023-03-03T04:18:19.312Z,2.80
2023-03-03T04:20:46.943Z,2.33
2023-03-03T04:23:14.803Z,1.43
2023-03-03T04:25:42.330Z,1.02
2023-03-03T04:28:11.065Z,1.29
2023-03-03T04:30:38.517Z,1.41
2023-03-03T04:33:05.949Z,2.04
2023-03-03T04:35:33.421Z,2.42
2023-03-03T04:38:01.146Z,1.19
2023-03-03T04:40:28.881Z,1.88
2023-03-03T04:42:56.439Z,1.51
2023-03-03T04:45:25.190Z,1.73
2023-03-03T04:47:52.712Z,2.15
2023-03-03T04:50:20.835Z,2.63
2023-03-03T04:52:48.372Z,2.11
2023-03-03T04:55:16.714Z,1.47
2023-03-03T04:57:44.373Z,1.98
2023-03-03T05:00:14.038Z,2.13
2023-03-03T05:02:43.424Z,2.06
2023-03-03T05:05:11.633Z,1.74
2023-03-03T05:07:39.066Z,1.12
2023-03-03T05:10:07.929Z,1.28
2023-03-03T05:12:35.422Z,1.77
2023-03-03T05:15:02.896Z,1.84
2023-03-03T05:17:30.417Z,1.94
2023-03-03T05:19:59.251Z,1.73
2023-03-03T05:22:26.847Z,1.41
2023-03-03T05:24:54.263Z,2.13
2023-03-03T05:27:21.784Z,2.78
2023-03-03T05:29:49.289Z,3.04
2023-03-03T05:32:16.953Z,2.84
2023-03-03T05:34:44.504Z,3.19
2023-03-03T05:37:13.396Z,2.41
2023-03-03T05:39:40.982Z,1.59
2023-03-03T05:42:08.453Z,0.88
2023-03-03T05:44:35.934Z,1.17
2023-03-03T05:47:03.478Z,0.57
2023-03-03T05:49:30.938Z,0.11
2023-03-03T05:51:59.263Z,0.36
2023-03-03T05:54:28.106Z,0.25
2023-03-03T05:56:57.302Z,1.65
2023-03-03T05:59:25.310Z,2.41
2023-03-03T06:01:52.925Z,1.96
2023-03-03T06:04:20.411Z,2.49
2023-03-03T06:06:47.863Z,2.58
2023-03-03T06:09:15.696Z,2.48
2023-03-03T06:11:44.463Z,1.87
2023-03-03T06:14:11.937Z,1.26
2023-03-03T06:16:39.502Z,1.22
2023-03-03T06:19:07.086Z,1.19
2023-03-03T06:21:34.519Z,1.43
2023-03-03T06:24:02.024Z,1.26
2023-03-03T06:26:29.730Z,0.57
2023-03-03T06:28:58.558Z,0.98
2023-03-03T06:31:26.124Z,1.13
2023-03-03T06:33:53.706Z,0.43
2023-03-03T06:36:21.801Z,0.53
2023-03-03T06:38:49.253Z,1.40
2023-03-03T06:41:16.731Z,1.61
2023-03-03T06:43:44.219Z,1.82
2023-03-03T06:46:13.025Z,1.40
2023-03-03T06:48:40.781Z,1.00
2023-03-03T06:51:21.520Z,0.99
2023-03-03T06:53:50.000Z,1.26
2023-03-03T06:56:18.616Z,1.19
2023-03-03T06:58:46.168Z,2.03
2023-03-03T07:01:18.251Z,1.01
2023-03-03T07:03:46.635Z,1.14
2023-03-03T07:06:23.379Z,1.00
2023-03-03T07:08:51.147Z,1.54
2023-03-03T07:11:20.533Z,2.20
2023-03-03T07:13:50.094Z,2.85
2023-03-03T07:16:20.758Z,2.59
2023-03-03T07:18:52.058Z,2.27
2023-03-03T07:21:21.777Z,2.27
2023-03-03T07:23:51.013Z,2.32
2023-03-03T07:26:22.651Z,2.43
2023-03-03T07:28:54.739Z,1.91
2023-03-03T07:31:40.227Z,1.44
2023-03-03T07:34:20.855Z,1.60
2023-03-03T07:36:49.657Z,1.81
2023-03-03T07:39:29.339Z,1.57
2023-03-03T07:42:03.838Z,1.28
2023-03-03T07:44:36.002Z,1.10
2023-03-03T07:47:16.541Z,0.84
2023-03-03T07:49:44.012Z,1.03
2023-03-03T07:52:25.570Z,1.08
2023-03-03T07:54:54.269Z,1.52
2023-03-03T07:57:25.933Z,2.08
2023-03-03T07:59:55.838Z,2.00
2023-03-03T08:02:55.332Z,1.96
2023-03-03T08:05:31.296Z,2.06
2023-03-03T08:08:16.134Z,2.07
2023-03-03T08:10:47.770Z,2.08
2023-03-03T08:13:19.862Z,2.48
2023-03-03T08:15:49.944Z,2.63
2023-03-03T08:18:25.044Z,1.67
2023-03-03T08:20:55.451Z,1.90
2023-03-03T08:23:23.454Z,1.56
2023-03-03T08:25:52.469Z,1.82
2023-03-03T08:28:21.191Z,2.11
2023-03-03T08:30:49.179Z,2.01
2023-03-03T08:33:17.572Z,1.94
2023-03-03T08:35:46.735Z,2.44
2023-03-03T08:38:16.307Z,2.31
2023-03-03T08:40:44.583Z,2.77
2023-03-03T08:43:16.949Z,2.35
2023-03-03T08:45:45.979Z,2.01
2023-03-03T08:48:13.965Z,1.94
2023-03-03T08:50:42.089Z,2.41
2023-03-03T08:53:11.532Z,1.76
2023-03-03T08:55:39.189Z,2.11
2023-03-03T08:58:07.190Z,2.70
2023-03-03T09:00:35.542Z,2.18
2023-03-03T09:03:03.547Z,2.53
2023-03-03T09:05:31.778Z,2.49
2023-03-03T09:07:59.380Z,3.06
2023-03-03T09:10:31.817Z,3.83
2023-03-03T09:13:03.552Z,4.48
2023-03-03T09:15:33.545Z,5.16
2023-03-03T09:18:11.637Z,5.24
2023-03-03T09:20:41.392Z,5.35
2023-03-03T09:23:29.893Z,5.59
2023-03-03T09:26:00.114Z,7.45
2023-03-03T09:28:30.014Z,8.76
2023-03-03T09:31:00.527Z,9.47
2023-03-03T09:33:33.404Z,8.79
2023-03-03T09:36:07.034Z,9.80
2023-03-03T09:38:35.485Z,9.80
2023-03-03T09:41:33.063Z,10.18
2023-03-03T09:44:17.541Z,10.86
2023-03-03T09:46:57.884Z,8.80
2023-03-03T09:49:33.135Z,5.55
2023-03-03T09:52:23.674Z,4.20
2023-03-03T09:55:02.118Z,3.65
2023-03-03T09:58:04.450Z,3.49
2023-03-03T10:00:52.094Z,4.50
2023-03-03T10:03:54.695Z,4.14
2023-03-03T10:06:28.938Z,4.03
2023-03-03T10:09:10.062Z,3.59
2023-03-03T10:11:42.875Z,4.17
2023-03-03T10:14:30.615Z,4.90
2023-03-03T10:17:15.941Z,3.81
2023-03-03T10:19:58.353Z,3.37
2023-03-03T10:22:35.926Z,3.92
2023-03-03T10:25:15.068Z,4.49
2023-03-03T10:27:54.470Z,4.87
2023-03-03T10:30:39.867Z,4.28
2023-03-03T10:33:22.580Z,3.57
2023-03-03T10:36:18.892Z,3.96
2023-03-03T10:38:56.337Z,4.75
2023-03-03T10:41:44.636Z,4.23
2023-03-03T10:44:33.251Z,4.41
2023-03-03T10:47:22.510Z,5.43
2023-03-03T10:50:02.509Z,5.48
2023-03-03T10:52:38.785Z,4.99
2023-03-03T10:55:39.722Z,4.17
2023-03-03T10:58:20.517Z,3.72
2023-03-03T11:00:53.444Z,3.76
2023-03-03T11:03:50.866Z,3.19
2023-03-03T11:06:23.270Z,3.46
2023-03-03T11:08:54.837Z,3.93
2023-03-03T11:11:33.669Z,4.18
2023-03-03T11:14:07.264Z,4.05
2023-03-03T11:16:43.068Z,4.03
2023-03-03T11:19:30.162Z,3.34
2023-03-03T11:22:08.381Z,4.13
2023-03-03T11:24:51.107Z,4.47
2023-03-03T11:27:34.577Z,4.61
2023-03-03T11:30:17.795Z,5.23
2023-03-03T11:32:52.764Z,4.95
2023-03-03T11:35:26.046Z,4.47
2023-03-03T11:38:13.638Z,4.50
2023-03-03T11:40:48.539Z,4.49
2023-03-03T11:43:35.699Z,4.92
2023-03-03T11:46:08.844Z,4.92
2023-03-03T11:48:44.735Z,5.34
2023-03-03T11:51:16.864Z,4.33
2023-03-03T11:53:58.326Z,4.74
2023-03-03T11:56:28.964Z,4.82
2023-03-03T11:59:08.515Z,4.22
2023-03-03T12:01:43.713Z,4.54
2023-03-03T12:04:16.830Z,4.56
2023-03-03T12:07:12.862Z,4.60
2023-03-03T12:09:54.063Z,4.82
2023-03-03T12:12:24.892Z,4.92
2023-03-03T12:15:05.523Z,4.59
2023-03-03T12:17:52.075Z,4.97
2023-03-03T12:20:26.694Z,5.70
2023-03-03T12:23:08.966Z,6.17
2023-03-03T12:25:40.975Z,5.24
2023-03-03T12:28:12.838Z,5.46
2023-03-03T12:31:10.910Z,5.88
2023-03-03T12:33:53.031Z,6.24
2023-03-03T12:36:37.862Z,5.78
2023-03-03T12:39:13.533Z,5.49
2023-03-03T12:41:47.773Z,5.06
2023-03-03T12:44:21.966Z,5.24
2023-03-03T12:47:01.880Z,5.93
2023-03-03T12:49:43.443Z,6.02
2023-03-03T12:52:24.197Z,6.50
2023-03-03T12:55:05.014Z,6.83
2023-03-03T12:57:40.263Z,6.81
2023-03-03T13:00:28.744Z,6.55
2023-03-03T13:03:05.187Z,6.62
2023-03-03T13:05:45.910Z,6.70
2023-03-03T13:08:43.405Z,6.89
2023-03-03T13:11:28.530Z,6.60
2023-03-03T13:14:05.268Z,6.21
2023-03-03T13:16:41.587Z,6.00
2023-03-03T13:19:12.382Z,5.05
2023-03-03T13:21:47.148Z,5.41
2023-03-03T13:24:21.879Z,4.88
2023-03-03T13:26:55.402Z,5.45
2023-03-03T13:29:28.275Z,4.43
2023-03-03T13:31:58.108Z,5.15
2023-03-03T13:34:39.002Z,5.62
2023-03-03T13:37:13.472Z,5.46
2023-03-03T13:39:50.867Z,5.05
2023-03-03T13:42:25.529Z,5.78
2023-03-03T13:44:53.892Z,6.27
2023-03-03T13:47:29.729Z,6.43
2023-03-03T13:50:20.960Z,5.92
2023-03-03T13:53:02.340Z,6.75
2023-03-03T13:55:34.819Z,6.22
2023-03-03T13:58:13.208Z,7.18
2023-03-03T14:00:52.696Z,6.06
2023-03-03T14:03:52.512Z,5.13
2023-03-03T14:06:22.706Z,5.30
2023-03-03T14:09:23.542Z,5.46
2023-03-03T14:11:58.127Z,5.16
2023-03-03T14:14:38.922Z,5.31
2023-03-03T14:17:14.674Z,5.02
2023-03-03T14:19:45.717Z,5.26
2023-03-03T14:22:23.668Z,5.00
2023-03-03T14:25:00.507Z,4.82
2023-03-03T14:27:34.389Z,5.22
2023-03-03T14:30:26.975Z,4.56
2023-03-03T14:33:03.603Z,4.79
2023-03-03T14:35:34.383Z,5.44
2023-03-03T14:38:03.745Z,4.99
2023-03-03T14:40:33.447Z,5.18
2023-03-03T14:43:02.306Z,5.44
2023-03-03T14:45:40.781Z,5.33
2023-03-03T14:48:16.346Z,6.17
2023-03-03T14:50:49.852Z,6.29
2023-03-03T14:53:23.964Z,5.43
2023-03-03T14:55:53.346Z,5.82
2023-03-03T14:58:36.139Z,5.91
2023-03-03T15:01:16.595Z,6.23
2023-03-03T15:03:52.509Z,6.88
2023-03-03T15:06:32.760Z,6.78
2023-03-03T15:09:22.785Z,6.32
2023-03-03T15:11:53.259Z,6.25
2023-03-03T15:14:23.770Z,6.11
2023-03-03T15:16:52.827Z,6.74
2023-03-03T15:19:38.663Z,7.35
2023-03-03T15:22:16.047Z,7.04
2023-03-03T15:24:51.049Z,7.24
2023-03-03T15:27:25.776Z,6.69
2023-03-03T15:30:05.050Z,7.00
2023-03-03T15:32:43.348Z,7.28
2023-03-03T15:35:26.011Z,7.54
2023-03-03T15:37:59.600Z,7.67
2023-03-03T15:40:30.381Z,7.15
2023-03-03T15:43:10.348Z,7.25
2023-03-03T15:45:46.079Z,7.42
2023-03-03T15:48:34.974Z,7.56
2023-03-03T15:51:11.042Z,7.42
2023-03-03T15:54:02.455Z,7.63
2023-03-03T15:56:38.132Z,7.74
2023-03-03T15:59:30.686Z,8.03
2023-03-03T16:02:09.230Z,7.92
2023-03-03T16:04:45.054Z,7.14
2023-03-03T16:07:24.458Z,7.48
2023-03-03T16:10:00.839Z,7.83
2023-03-03T16:12:40.574Z,7.97
2023-03-03T16:15:22.940Z,8.15
2023-03-03T16:17:58.878Z,7.94
2023-03-03T16:20:34.283Z,7.71
2023-03-03T16:23:28.407Z,7.92
2023-03-03T16:26:05.501Z,7.89
2023-03-03T16:28:44.405Z,7.67
2023-03-03T16:31:18.148Z,8.15
2023-03-03T16:33:56.892Z,7.68
2023-03-03T16:36:33.210Z,7.63
2023-03-03T16:39:06.139Z,7.78
2023-03-03T16:41:44.227Z,7.34
2023-03-03T16:44:31.207Z,7.42
2023-03-03T16:47:11.854Z,7.39
2023-03-03T16:49:49.822Z,7.40
2023-03-03T16:52:25.476Z,7.46
2023-03-03T16:54:58.212Z,7.49
2023-03-03T16:57:34.098Z,7.57
2023-03-03T17:00:08.954Z,7.39
2023-03-03T17:02:50.065Z,7.28
2023-03-03T17:05:27.311Z,6.81
2023-03-03T17:08:08.528Z,6.66
2023-03-03T17:10:43.029Z,6.85
2023-03-03T17:13:30.051Z,6.43
2023-03-03T17:16:14.223Z,6.04
2023-03-03T17:18:53.524Z,6.05
2023-03-03T17:21:28.898Z,5.82
2023-03-03T17:24:07.257Z,6.66
2023-03-03T17:26:51.354Z,6.70
2023-03-03T17:29:46.672Z,6.34
2023-03-03T17:32:28.898Z,6.80
2023-03-03T17:35:15.483Z,6.91
2023-03-03T17:37:51.299Z,6.98
2023-03-03T17:40:36.939Z,7.12
2023-03-03T17:43:10.206Z,7.21
2023-03-03T17:45:42.283Z,6.75
2023-03-03T17:48:53.927Z,7.09
2023-03-03T17:51:37.297Z,7.49
2023-03-03T17:54:29.092Z,7.42
2023-03-03T17:57:15.111Z,7.03
2023-03-03T17:59:56.919Z,7.16
2023-03-03T18:02:46.426Z,6.81
2023-03-03T18:05:46.385Z,7.53
2023-03-03T18:08:28.956Z,6.57
2023-03-03T18:11:11.425Z,7.24
2023-03-03T18:14:04.616Z,6.10
2023-03-03T18:16:47.769Z,6.82
2023-03-03T18:19:46.533Z,7.16
2023-03-03T18:22:19.570Z,7.41
2023-03-03T18:24:56.981Z,7.27
2023-03-03T18:27:34.293Z,6.80
2023-03-03T18:30:25.161Z,7.15
2023-03-03T18:33:12.708Z,6.56
2023-03-03T18:35:44.099Z,6.96
2023-03-03T18:38:30.287Z,6.80
2023-03-03T18:40:59.920Z,7.32
2023-03-03T18:43:52.102Z,7.33
2023-03-03T18:46:50.376Z,7.44
2023-03-03T18:49:18.477Z,7.14
2023-03-03T18:51:53.416Z,7.06
2023-03-03T18:54:31.287Z,6.79
2023-03-03T18:57:17.723Z,6.93
2023-03-03T19:00:10.763Z,7.01
2023-03-03T19:02:49.673Z,6.85
2023-03-03T19:05:24.295Z,7.33
2023-03-03T19:07:57.542Z,7.35
2023-03-03T19:10:48.893Z,6.95
2023-03-03T19:13:53.057Z,6.96
2023-03-03T19:16:36.864Z,6.97
2023-03-03T19:19:14.961Z,6.85
2023-03-03T19:21:43.792Z,6.82
2023-03-03T19:24:34.569Z,7.12
2023-03-03T19:27:16.252Z,6.87
2023-03-03T19:30:22.822Z,7.29
2023-03-03T19:33:10.020Z,7.19
2023-03-03T19:35:54.595Z,7.45
2023-03-03T19:38:32.301Z,6.74
2023-03-03T19:41:08.954Z,7.25
2023-03-03T19:43:47.062Z,6.83
2023-03-03T19:46:41.405Z,6.61
2023-03-03T19:49:18.209Z,7.16
2023-03-03T19:51:53.427Z,7.23
2023-03-03T19:54:37.332Z,6.58
2023-03-03T19:57:12.321Z,6.81
2023-03-03T19:59:46.528Z,6.82
2023-03-03T20:02:31.525Z,6.71
2023-03-03T20:05:08.099Z,7.39
2023-03-03T20:07:45.320Z,6.87
2023-03-03T20:10:32.839Z,6.87
2023-03-03T20:13:12.075Z,7.38
2023-03-03T20:15:48.333Z,6.97
2023-03-03T20:18:35.000Z,7.30
2023-03-03T20:21:09.059Z,6.99
2023-03-03T20:23:51.023Z,6.81
2023-03-03T20:26:27.209Z,6.68
2023-03-03T20:29:15.785Z,6.50
2023-03-03T20:31:50.972Z,5.67
2023-03-03T20:34:28.599Z,5.37
2023-03-03T20:37:01.435Z,5.68
2023-03-03T20:39:41.440Z,5.37
2023-03-03T20:42:19.243Z,5.77
2023-03-03T20:45:01.771Z,5.80
2023-03-03T20:47:39.241Z,6.02
2023-03-03T20:50:16.810Z,5.95
2023-03-03T20:52:55.812Z,5.44
2023-03-03T20:55:35.005Z,5.85
2023-03-03T20:58:08.430Z,5.79
2023-03-03T21:00:44.365Z,6.34
2023-03-03T21:03:19.407Z,6.99
2023-03-03T21:05:58.926Z,6.47
2023-03-03T21:08:48.385Z,6.59
2023-03-03T21:11:19.079Z,6.67
2023-03-03T21:13:48.062Z,6.59
2023-03-03T21:16:31.213Z,5.56
2023-03-03T21:19:00.200Z,5.82
2023-03-03T21:21:30.045Z,6.04
2023-03-03T21:23:59.074Z,5.80
2023-03-03T21:26:51.871Z,5.87
2023-03-03T21:29:21.104Z,6.28
2023-03-03T21:31:49.994Z,5.69
2023-03-03T21:34:25.793Z,6.03
2023-03-03T21:36:54.131Z,6.11
2023-03-03T21:39:24.972Z,6.59
2023-03-03T21:41:56.281Z,6.37
2023-03-03T21:44:41.490Z,6.29
2023-03-03T21:47:10.686Z,5.67
2023-03-03T21:49:42.461Z,6.14
2023-03-03T21:52:10.400Z,6.22
2023-03-03T21:54:37.888Z,6.12
2023-03-03T21:57:06.690Z,6.45
2023-03-03T21:59:34.163Z,6.60
2023-03-03T22:02:01.729Z,8.41
2023-03-03T22:04:29.656Z,10.53
2023-03-03T22:06:57.553Z,11.30
2023-03-03T22:09:25.035Z,10.32
2023-03-03T22:11:52.505Z,10.01
2023-03-03T22:14:21.306Z,10.76
2023-03-03T22:16:48.740Z,10.65
2023-03-03T22:19:16.356Z,12.09
2023-03-03T22:21:43.797Z,11.73
2023-03-03T22:24:11.255Z,11.88
2023-03-03T22:26:38.719Z,12.61
2023-03-03T22:29:06.600Z,11.99
2023-03-03T22:31:35.589Z,11.91
2023-03-03T22:34:03.271Z,10.97
2023-03-03T22:36:31.265Z,11.64
2023-03-03T22:38:58.947Z,12.05
2023-03-03T22:41:26.464Z,12.18
2023-03-03T22:43:53.888Z,11.90
2023-03-03T22:46:21.426Z,11.38
2023-03-03T22:48:50.371Z,10.70
2023-03-03T22:51:21.987Z,9.57
2023-03-03T22:53:49.535Z,9.07
2023-03-03T22:56:16.964Z,8.48
2023-03-03T22:58:44.411Z,7.43
2023-03-03T23:01:11.905Z,7.01
2023-03-03T23:03:39.474Z,6.78
2023-03-03T23:06:08.680Z,7.19
2023-03-03T23:08:36.097Z,7.23
2023-03-03T23:11:03.774Z,6.50
2023-03-03T23:13:31.782Z,6.31
2023-03-03T23:16:00.321Z,6.51
2023-03-03T23:18:28.411Z,6.58
2023-03-03T23:20:56.179Z,6.80
2023-03-03T23:23:25.312Z,6.49
2023-03-03T23:25:52.761Z,6.47
2023-03-03T23:28:20.238Z,6.32
2023-03-03T23:30:47.654Z,6.21
2023-03-03T23:33:15.274Z,4.99
2023-03-03T23:35:45.127Z,5.20
2023-03-03T23:38:15.430Z,5.54
2023-03-03T23:40:46.576Z,6.00
2023-03-03T23:43:14.123Z,5.27
2023-03-03T23:45:41.766Z,4.72
2023-03-03T23:48:09.759Z,5.51
2023-03-03T23:50:38.013Z,5.65
2023-03-03T23:53:05.607Z,6.09
2023-03-03T23:55:33.107Z,5.62
2023-03-03T23:58:01.985Z,5.73
